Time;durP1;ratioP1;P1;durP2;ratioP2;P2;SDS_P1;SDS_P2;PMS_P1;PMS_P2;Temp;Humidity;BMP_temperature;BMP_pressure;BME280_temperature;BME280_humidity;BME280_pressure;Samples;Min_cycle;Max_cycle;Signal;HPM_P1;HPM_P2
2023/12/29 00:00:51;;;;;;;60.33;29.80;;;;;;;1.11;nan;101216.75;5039476;28;20053;-70
2023/12/29 00:03:16;;;;;;;60.33;30.25;;;;;;;0.98;nan;101199.72;5039304;28;20049;-71
2023/12/29 00:05:41;;;;;;;57.03;29.48;;;;;;;0.97;nan;101208.44;5038092;28;20427;-70
2023/12/29 00:08:07;;;;;;;63.40;30.13;;;;;;;1.01;nan;101219.38;5026165;28;20737;-71
2023/12/29 00:10:32;;;;;;;62.67;30.48;;;;;;;0.94;nan;101213.13;5042015;28;20068;-70
2023/12/29 00:12:58;;;;;;;59.75;29.63;;;;;;;0.91;nan;101208.19;5041918;28;20386;-70
2023/12/29 00:15:23;;;;;;;61.63;29.92;;;;;;;0.94;nan;101219.13;5041454;28;20029;-69
2023/12/29 00:17:48;;;;;;;61.70;29.38;;;;;;;0.96;nan;101218.94;5021321;28;20390;-67
2023/12/29 00:20:14;;;;;;;62.70;29.52;;;;;;;0.89;nan;101210.94;5039866;28;20025;-68
2023/12/29 00:22:39;;;;;;;61.05;28.83;;;;;;;0.67;nan;101186.19;5035361;28;20037;-68
2023/12/29 00:25:05;;;;;;;55.83;28.48;;;;;;;0.81;nan;101205.63;5021914;28;20715;-68
2023/12/29 00:27:31;;;;;;;62.00;28.60;;;;;;;0.81;nan;101216.84;5039543;28;20021;-69
2023/12/29 00:29:56;;;;;;;56.60;28.38;;;;;;;0.68;nan;101194.78;5040022;28;20075;-67
2023/12/29 00:32:21;;;;;;;61.30;28.00;;;;;;;0.73;nan;101218.50;5037636;28;20028;-68
2023/12/29 00:34:47;;;;;;;58.28;28.70;;;;;;;0.69;nan;101215.34;5038215;28;20116;-66
2023/12/29 00:37:12;;;;;;;60.65;30.15;;;;;;;0.75;nan;101217.41;5044645;28;20021;-68
2023/12/29 00:39:41;;;;;;;61.35;29.25;;;;;;;0.79;nan;101213.56;5050371;28;20451;-68
2023/12/29 00:42:06;;;;;;;69.72;31.88;;;;;;;0.74;nan;101201.97;5036109;28;20585;-66
2023/12/29 00:44:33;;;;;;;66.43;30.95;;;;;;;0.76;nan;101202.66;5048899;28;20108;-66
2023/12/29 00:46:59;;;;;;;69.22;32.05;;;;;;;0.89;nan;101221.31;5045101;28;20591;-67
2023/12/29 00:49:24;;;;;;;71.57;33.20;;;;;;;0.88;nan;101211.88;5038502;28;20057;-70
2023/12/29 00:51:50;;;;;;;70.22;33.00;;;;;;;0.89;nan;101210.94;5034836;28;20442;-67
2023/12/29 00:54:15;;;;;;;69.32;32.78;;;;;;;0.85;nan;101196.63;5038213;28;20506;-67
2023/12/29 00:56:41;;;;;;;72.05;35.17;;;;;;;0.86;nan;101198.25;5038375;28;20025;-67
2023/12/29 00:59:07;;;;;;;72.18;34.33;;;;;;;0.82;nan;101199.50;5039160;28;20025;-67
2023/12/29 01:01:36;;;;;;;68.57;33.78;;;;;;;1.01;nan;101224.56;5038698;28;20489;-67
2023/12/29 01:04:02;;;;;;;72.70;34.63;;;;;;;1.01;nan;101221.97;5040624;28;20437;-68
2023/12/29 01:06:27;;;;;;;78.13;36.40;;;;;;;0.96;nan;101209.41;5035580;28;20860;-67
2023/12/29 01:08:53;;;;;;;73.63;34.83;;;;;;;1.00;nan;101217.72;5035984;28;20026;-69
2023/12/29 01:11:18;;;;;;;76.20;35.35;;;;;;;1.00;nan;101210.75;5039075;28;20021;-66
2023/12/29 01:13:44;;;;;;;75.18;36.97;;;;;;;1.03;nan;101207.91;5022521;28;20116;-67
2023/12/29 01:16:09;;;;;;;77.60;36.20;;;;;;;1.05;nan;101205.97;5042565;28;20348;-67
2023/12/29 01:18:34;;;;;;;78.45;37.47;;;;;;;1.04;nan;101195.75;5037339;28;20638;-66
2023/12/29 01:21:00;;;;;;;84.22;37.38;;;;;;;1.05;nan;101200.78;5037173;28;20033;-66
2023/12/29 01:23:25;;;;;;;79.97;37.30;;;;;;;0.74;nan;101150.13;5039099;28;20475;-67
2023/12/29 01:25:51;;;;;;;77.57;37.42;;;;;;;1.06;nan;101188.63;5040618;28;20112;-68
2023/12/29 01:28:16;;;;;;;75.40;36.78;;;;;;;1.03;nan;101174.19;5038920;28;20439;-68
2023/12/29 01:30:42;;;;;;;77.80;36.30;;;;;;;1.14;nan;101193.09;5036219;28;20029;-69
2023/12/29 01:33:07;;;;;;;74.07;35.72;;;;;;;1.18;nan;101194.47;5026441;28;20029;-67
2023/12/29 01:35:32;;;;;;;68.25;34.30;;;;;;;1.04;nan;101170.63;5019910;28;20029;-67
2023/12/29 01:37:58;;;;;;;69.45;33.78;;;;;;;1.18;nan;101197.84;5037984;28;20032;-68
2023/12/29 01:40:23;;;;;;;74.70;35.10;;;;;;;1.04;nan;101168.03;5036717;28;20510;-67
2023/12/29 01:42:49;;;;;;;76.63;36.08;;;;;;;1.12;nan;101177.66;5037940;28;20036;-67
2023/12/29 01:45:25;;;;;;;74.57;36.60;;;;;;;1.15;nan;101180.00;5051395;28;20044;-66
2023/12/29 01:47:52;;;;;;;79.28;37.42;;;;;;;1.07;nan;101169.50;5036403;28;20029;-68
2023/12/29 01:50:20;;;;;;;75.10;37.35;;;;;;;1.02;nan;101162.16;5035609;28;20025;-67
2023/12/29 01:52:47;;;;;;;79.80;37.20;;;;;;;1.05;nan;101159.28;5035910;28;20132;-67
2023/12/29 01:55:17;;;;;;;76.07;38.22;;;;;;;1.16;nan;101179.03;5038545;28;20079;-68
2023/12/29 01:57:42;;;;;;;82.43;37.40;;;;;;;1.01;nan;101159.72;5039010;28;20037;-68
2023/12/29 02:00:09;;;;;;;78.75;37.10;;;;;;;1.02;nan;101158.75;5036859;28;20036;-69
2023/12/29 02:02:35;;;;;;;74.43;36.50;;;;;;;0.92;nan;101155.41;5038679;28;20025;-68
2023/12/29 02:05:00;;;;;;;76.25;35.40;;;;;;;0.95;nan;101170.66;5040259;28;20104;-68
2023/12/29 02:07:30;;;;;;;75.55;36.03;;;;;;;0.90;nan;101154.72;5037369;28;20021;-69
2023/12/29 02:09:57;;;;;;;76.50;36.55;;;;;;;0.88;nan;101147.06;5037223;28;20025;-69
2023/12/29 02:12:23;;;;;;;76.38;35.80;;;;;;;0.70;nan;101115.91;5041740;28;20107;-69
2023/12/29 02:14:48;;;;;;;79.75;38.15;;;;;;;0.97;nan;101161.78;5024824;28;20452;-68
2023/12/29 02:17:26;;;;;;;79.13;37.38;;;;;;;0.97;nan;101158.38;5023653;28;20033;-68
2023/12/29 02:19:52;;;;;;;74.93;36.83;;;;;;;0.99;nan;101165.03;5037341;28;20090;-70
2023/12/29 02:22:17;;;;;;;80.22;38.38;;;;;;;0.98;nan;101163.41;5037926;28;20115;-69
2023/12/29 02:24:49;;;;;;;82.47;38.08;;;;;;;1.01;nan;101165.72;5039783;28;20108;-69
2023/12/29 02:27:31;;;;;;;87.38;39.05;;;;;;;;;;5036996;28;20074;-69
2023/12/29 02:30:09;;;;;;;87.60;38.00;;;;;;;;;;5037165;28;20451;-68
2023/12/29 02:32:36;;;;;;;79.07;37.10;;;;;;;;;;5023628;28;20029;-69
2023/12/29 02:35:02;;;;;;;78.10;37.25;;;;;;;;;;5026862;28;20044;-69
2023/12/29 02:37:28;;;;;;;80.97;37.40;;;;;;;;;;5021743;28;20025;-69
2023/12/29 02:39:53;;;;;;;85.82;39.40;;;;;;;;;;5035545;28;20503;-67
2023/12/29 02:42:19;;;;;;;83.47;40.22;;;;;;;;;;5038627;28;20052;-68
2023/12/29 02:44:44;;;;;;;80.03;37.07;;;;;;;;;;5034943;28;20444;-68
2023/12/29 02:47:09;;;;;;;85.40;40.13;;;;;;;;;;5036584;28;20269;-69
2023/12/29 02:49:34;;;;;;;85.10;39.78;;;;;;;;;;5028067;28;20285;-69
2023/12/29 02:52:00;;;;;;;84.97;39.57;;;;;;;;;;5037130;28;20049;-68
2023/12/29 02:54:25;;;;;;;83.28;39.03;;;;;;;;;;5038202;28;20274;-68
2023/12/29 02:56:50;;;;;;;94.95;41.50;;;;;;;;;;5018894;28;20025;-69
2023/12/29 02:59:15;;;;;;;95.37;42.93;;;;;;;;;;5037320;28;20029;-69
2023/12/29 03:01:41;;;;;;;93.67;42.90;;;;;;;;;;5035663;28;20308;-68
2023/12/29 03:04:06;;;;;;;95.68;44.22;;;;;;;;;;5022264;28;20343;-69
2023/12/29 03:06:31;;;;;;;94.37;43.37;;;;;;;;;;5034132;28;20024;-68
2023/12/29 03:08:57;;;;;;;99.25;45.92;;;;;;;;;;5027014;28;20278;-69
2023/12/29 03:11:22;;;;;;;108.18;46.50;;;;;;;;;;5037267;28;20029;-68
2023/12/29 03:13:47;;;;;;;96.00;44.77;;;;;;;;;;5034272;28;20048;-69
2023/12/29 03:16:13;;;;;;;90.25;42.65;;;;;;;;;;5038199;28;20992;-69
2023/12/29 03:18:39;;;;;;;84.85;40.50;;;;;;;;;;5047636;28;20036;-69
2023/12/29 03:21:05;;;;;;;86.72;40.03;;;;;;;;;;5045981;28;20029;-68
2023/12/29 03:23:31;;;;;;;87.78;40.05;;;;;;;;;;5049104;28;20018;-70
2023/12/29 03:25:56;;;;;;;83.43;40.60;;;;;;;;;;5037824;28;20013;-67
2023/12/29 03:28:21;;;;;;;81.30;39.17;;;;;;;;;;5062188;28;20014;-69
2023/12/29 03:30:46;;;;;;;83.97;40.15;;;;;;;;;;5034659;28;20274;-70
2023/12/29 03:33:12;;;;;;;92.65;42.83;;;;;;;;;;5034886;28;20139;-71
2023/12/29 03:35:37;;;;;;;86.17;39.23;;;;;;;;;;5034475;28;20063;-71
2023/12/29 03:38:02;;;;;;;82.47;39.83;;;;;;;;;;5022882;28;20304;-69
2023/12/29 03:40:28;;;;;;;90.95;40.85;;;;;;;;;;5032422;28;20267;-69
2023/12/29 03:42:53;;;;;;;84.97;40.55;;;;;;;;;;5024989;28;20037;-69
2023/12/29 03:45:18;;;;;;;85.93;40.47;;;;;;;;;;5036403;28;20021;-70
2023/12/29 03:47:43;;;;;;;86.47;41.17;;;;;;;;;;5034513;28;20760;-69
2023/12/29 03:50:09;;;;;;;79.50;38.72;;;;;;;;;;5036401;28;20094;-69
2023/12/29 03:52:34;;;;;;;81.43;39.80;;;;;;;;;;5016073;28;20049;-71
2023/12/29 03:54:59;;;;;;;77.60;37.77;;;;;;;;;;5018933;28;20030;-69
2023/12/29 03:57:25;;;;;;;77.50;37.20;;;;;;;;;;5017381;28;20632;-70
2023/12/29 03:59:50;;;;;;;78.23;37.03;;;;;;;;;;5018038;28;20290;-69
2023/12/29 04:02:17;;;;;;;77.68;36.65;;;;;;;;;;5026608;28;20942;-69
2023/12/29 04:04:42;;;;;;;77.00;37.63;;;;;;;;;;5020894;28;20175;-69
2023/12/29 04:07:08;;;;;;;78.30;35.58;;;;;;;;;;5019251;28;20100;-69
2023/12/29 04:09:33;;;;;;;72.40;35.23;;;;;;;;;;5017078;28;20132;-72
2023/12/29 04:11:58;;;;;;;77.78;35.83;;;;;;;;;;5021433;28;20353;-69
2023/12/29 04:14:24;;;;;;;71.30;35.00;;;;;;;;;;5025260;28;20033;-71
2023/12/29 04:16:49;;;;;;;73.90;36.20;;;;;;;;;;5025350;28;20022;-71
2023/12/29 04:19:14;;;;;;;70.37;33.30;;;;;;;;;;5019050;28;20274;-69
2023/12/29 04:21:39;;;;;;;69.67;34.23;;;;;;;;;;5019436;28;20651;-71
2023/12/29 04:24:05;;;;;;;63.22;32.17;;;;;;;;;;5020506;28;20350;-70
2023/12/29 04:26:35;;;;;;;61.13;30.55;;;;;;;;;;5015788;28;20645;-70
2023/12/29 04:29:00;;;;;;;64.65;30.40;;;;;;;;;;5019988;28;20032;-72
2023/12/29 04:31:25;;;;;;;63.47;30.48;;;;;;;;;;5027122;28;20029;-71
2023/12/29 04:33:51;;;;;;;61.95;31.73;;;;;;;;;;5020747;28;20215;-72
2023/12/29 04:36:16;;;;;;;62.60;30.52;;;;;;;;;;5018516;28;20041;-72
2023/12/29 04:38:41;;;;;;;64.07;30.23;;;;;;;;;;5014461;28;20037;-72
2023/12/29 04:41:07;;;;;;;62.15;29.25;;;;;;;;;;5019540;28;20271;-72
2023/12/29 04:43:32;;;;;;;62.38;30.17;;;;;;;;;;5024869;28;21134;-73
2023/12/29 04:45:57;;;;;;;74.97;32.90;;;;;;;;;;5019628;28;20014;-71
2023/12/29 04:48:23;;;;;;;72.80;34.55;;;;;;;;;;5019103;28;20448;-71
2023/12/29 04:50:48;;;;;;;71.30;33.80;;;;;;;;;;5015190;28;20091;-73
2023/12/29 04:53:13;;;;;;;75.20;34.90;;;;;;;;;;5034369;28;20458;-71
2023/12/29 04:55:39;;;;;;;75.70;34.72;;;;;;;;;;5036320;28;20040;-71
2023/12/29 04:58:04;;;;;;;71.83;34.57;;;;;;;;;;5022938;28;20032;-72
2023/12/29 05:00:29;;;;;;;69.22;33.63;;;;;;;;;;5039085;28;20274;-71
2023/12/29 05:02:54;;;;;;;67.87;31.37;;;;;;;;;;5037656;28;20021;-72
2023/12/29 05:05:20;;;;;;;63.67;30.95;;;;;;;;;;5023694;28;20266;-71
2023/12/29 05:07:45;;;;;;;66.32;29.88;;;;;;;;;;5038866;28;20059;-72
2023/12/29 05:10:10;;;;;;;64.68;30.23;;;;;;;;;;5037961;28;20044;-71
2023/12/29 05:12:36;;;;;;;69.63;31.27;;;;;;;;;;5019745;28;20376;-73
2023/12/29 05:15:01;;;;;;;56.78;29.23;;;;;;;-0.24;nan;101152.88;5038353;28;20320;-73
2023/12/29 05:17:26;;;;;;;59.20;29.42;;;;;;;;;;5040100;28;20033;-73
2023/12/29 05:19:52;;;;;;;70.95;29.33;;;;;;;-0.10;nan;101166.34;5034510;28;20033;-74
2023/12/29 05:22:17;;;;;;;65.55;28.48;;;;;;;-0.08;nan;101156.69;5037229;28;20506;-72
2023/12/29 05:24:45;;;;;;;58.97;28.73;;;;;;;-0.04;nan;101182.16;5036366;28;20044;-74
2023/12/29 05:27:10;;;;;;;61.38;27.00;;;;;;;-0.13;nan;101158.88;5036382;28;20068;-73
2023/12/29 05:29:36;;;;;;;58.70;28.25;;;;;;;-0.05;nan;101174.53;5025587;28;20036;-72
2023/12/29 05:32:02;;;;;;;55.97;27.20;;;;;;;-0.09;nan;101155.06;5037558;28;20017;-71
2023/12/29 05:34:28;;;;;;;55.35;27.98;;;;;;;0.03;nan;101189.41;5028095;28;20551;-73
2023/12/29 05:36:53;;;;;;;58.13;28.38;;;;;;;-0.03;nan;101175.22;5036704;28;20075;-72
2023/12/29 05:39:19;;;;;;;59.58;26.70;;;;;;;-0.04;nan;101163.22;5037825;28;20037;-73
2023/12/29 05:41:44;;;;;;;54.53;26.45;;;;;;;0.06;nan;101178.75;5039865;28;20519;-72
2023/12/29 05:44:10;;;;;;;56.88;27.15;;;;;;;0.00;nan;101169.78;5039262;28;20028;-71
2023/12/29 05:46:35;;;;;;;57.40;26.52;;;;;;;-0.09;nan;101152.47;5021146;28;20651;-71
2023/12/29 05:49:01;;;;;;;50.22;25.25;;;;;;;-0.06;nan;101157.38;5041985;28;20017;-72
2023/12/29 05:51:26;;;;;;;44.00;22.88;;;;;;;-0.02;nan;101167.31;5037414;28;20037;-72
2023/12/29 05:53:51;;;;;;;49.42;22.98;;;;;;;0.04;nan;101170.31;5035497;28;20076;-72
2023/12/29 05:56:17;;;;;;;49.53;23.13;;;;;;;-0.12;nan;101163.91;5042491;28;20047;-71
2023/12/29 05:58:43;;;;;;;47.90;23.40;;;;;;;-0.10;nan;101169.75;5057050;28;20025;-72
2023/12/29 06:01:09;;;;;;;47.83;23.05;;;;;;;-0.08;nan;101172.22;5054679;28;20020;-71
2023/12/29 06:03:34;;;;;;;46.10;24.00;;;;;;;-0.15;nan;101155.59;5057048;28;20093;-70
2023/12/29 06:06:00;;;;;;;49.60;24.17;;;;;;;-0.24;nan;101159.81;5059766;28;20610;-68
2023/12/29 06:08:25;;;;;;;52.47;23.60;;;;;;;-0.30;nan;101156.00;5043329;28;20471;-70
2023/12/29 06:10:50;;;;;;;51.30;24.13;;;;;;;-0.32;nan;101157.91;5037712;28;20021;-72
2023/12/29 06:13:16;;;;;;;49.72;23.08;;;;;;;-0.29;nan;101159.41;5040609;28;20032;-70
2023/12/29 06:15:41;;;;;;;44.58;22.95;;;;;;;-0.29;nan;101168.00;5037781;28;20059;-73
2023/12/29 06:18:07;;;;;;;50.17;23.63;;;;;;;-0.36;nan;101158.31;5036991;28;20017;-72
2023/12/29 06:20:33;;;;;;;48.65;22.45;;;;;;;-0.35;nan;101162.53;5018865;28;20026;-73
2023/12/29 06:22:59;;;;;;;43.70;22.92;;;;;;;-0.39;nan;101153.41;5037210;28;20021;-72
2023/12/29 06:25:24;;;;;;;46.00;22.48;;;;;;;-0.20;nan;101186.25;5023039;28;20088;-73
2023/12/29 06:27:51;;;;;;;44.88;22.13;;;;;;;-0.40;nan;101144.84;5039550;28;20473;-73
2023/12/29 06:30:16;;;;;;;50.17;23.77;;;;;;;-0.19;nan;101168.00;5034131;28;20046;-71
2023/12/29 06:32:42;;;;;;;53.53;21.98;;;;;;;-0.30;nan;101150.00;5018219;28;20025;-71
2023/12/29 06:35:09;;;;;;;40.50;21.70;;;;;;;-0.21;nan;101172.50;5035874;28;20032;-72
2023/12/29 06:37:37;;;;;;;45.33;20.50;;;;;;;-0.06;nan;101191.84;5036287;28;20024;-72
2023/12/29 06:40:03;;;;;;;41.63;21.27;;;;;;;-0.15;nan;101179.69;5035985;28;20147;-72
2023/12/29 06:42:29;;;;;;;42.30;21.23;;;;;;;-0.09;nan;101193.91;5035521;28;20498;-70
2023/12/29 06:44:54;;;;;;;45.58;21.85;;;;;;;-0.08;nan;101193.75;5034223;28;20053;-72
2023/12/29 06:47:20;;;;;;;47.55;21.80;;;;;;;-0.06;nan;101186.66;5029296;28;20009;-71
2023/12/29 06:49:45;;;;;;;44.08;21.65;;;;;;;-0.07;nan;101182.44;5021307;28;20025;-71
2023/12/29 06:52:10;;;;;;;45.20;21.20;;;;;;;-0.01;nan;101189.66;5035941;28;20059;-70
2023/12/29 06:54:36;;;;;;;45.20;21.67;;;;;;;0.08;nan;101203.56;5041286;28;20059;-70
2023/12/29 06:57:01;;;;;;;51.03;23.02;;;;;;;0.04;nan;101194.44;5036805;28;20021;-71
2023/12/29 06:59:27;;;;;;;51.00;22.30;;;;;;;-0.04;nan;101181.34;5036337;28;20506;-71
2023/12/29 07:01:52;;;;;;;50.00;22.55;;;;;;;0.05;nan;101190.91;5037490;28;20026;-72
2023/12/29 07:04:17;;;;;;;48.45;22.65;;;;;;;0.16;nan;101206.28;5034917;28;20378;-71
2023/12/29 07:06:43;;;;;;;45.05;21.90;;;;;;;0.10;nan;101196.47;5035946;28;20511;-70
2023/12/29 07:09:09;;;;;;;48.63;22.27;;;;;;;0.12;nan;101189.41;5021584;28;20040;-71
2023/12/29 07:11:35;;;;;;;59.78;22.30;;;;;;;0.30;nan;101204.25;5034828;28;20036;-72
2023/12/29 07:14:01;;;;;;;44.45;22.98;;;;;;;0.18;nan;101180.25;5037156;28;20036;-71
2023/12/29 07:16:26;;;;;;;46.38;22.13;;;;;;;0.36;nan;101204.50;5037805;28;20379;-71
2023/12/29 07:18:52;;;;;;;44.28;20.75;;;;;;;0.29;nan;101184.44;5026079;28;20099;-72
2023/12/29 07:21:18;;;;;;;44.35;20.90;;;;;;;0.35;nan;101194.28;5036781;28;20391;-71
2023/12/29 07:23:43;;;;;;;42.83;20.88;;;;;;;0.42;nan;101203.13;5018116;28;20067;-71
2023/12/29 07:26:09;;;;;;;43.55;20.75;;;;;;;0.31;nan;101182.56;5037258;28;20070;-72
2023/12/29 07:28:34;;;;;;;42.67;21.60;;;;;;;0.39;nan;101185.28;5034830;28;20487;-72
2023/12/29 07:31:01;;;;;;;45.38;22.02;;;;;;;0.45;nan;101191.66;5035911;28;20029;-72
2023/12/29 07:33:27;;;;;;;45.25;21.08;;;;;;;0.42;nan;101187.59;5039359;28;20374;-72
2023/12/29 07:35:52;;;;;;;43.13;21.40;;;;;;;0.41;nan;101189.38;5023996;28;20025;-72
2023/12/29 07:38:18;;;;;;;42.85;21.48;;;;;;;0.52;nan;101205.72;5039559;28;20021;-72
2023/12/29 07:40:44;;;;;;;48.70;22.50;;;;;;;0.46;nan;101188.94;5055535;28;20099;-72
2023/12/29 07:43:09;;;;;;;49.78;22.60;;;;;;;0.48;nan;101189.63;5045085;28;20024;-72
2023/12/29 07:45:34;;;;;;;45.95;22.00;;;;;;;0.41;nan;101181.59;5040128;28;20079;-72
2023/12/29 07:48:02;;;;;;;49.38;22.90;;;;;;;0.33;nan;101165.09;5037636;28;20486;-71
2023/12/29 07:50:28;;;;;;;46.88;22.38;;;;;;;0.49;nan;101180.06;5038459;28;20096;-71
2023/12/29 07:52:53;;;;;;;49.17;23.48;;;;;;;0.63;nan;101203.78;5039664;28;20534;-71
2023/12/29 07:55:19;;;;;;;49.58;22.85;;;;;;;0.33;nan;101155.53;5040625;28;20092;-71
2023/12/29 07:57:46;;;;;;;49.53;23.10;;;;;;;0.64;nan;101200.22;5040938;28;20044;-71
2023/12/29 08:00:15;;;;;;;41.47;21.80;;;;;;;0.68;nan;101208.53;5039005;28;20523;-71
2023/12/29 08:02:40;;;;;;;44.90;23.08;;;;;;;0.53;nan;101178.84;5022918;28;20032;-71
2023/12/29 08:05:08;;;;;;;48.45;23.65;;;;;;;0.56;nan;101183.75;5039507;28;20391;-70
2023/12/29 08:07:34;;;;;;;51.53;23.85;;;;;;;0.67;nan;101203.47;5038600;28;20112;-71
2023/12/29 08:10:00;;;;;;;50.53;23.58;;;;;;;0.74;nan;101208.00;5040338;28;20031;-71
2023/12/29 08:12:26;;;;;;;49.58;24.75;;;;;;;0.76;nan;101213.03;5040764;28;20021;-69
2023/12/29 08:14:51;;;;;;;51.38;25.95;;;;;;;0.77;nan;101204.31;5038344;28;20036;-70
2023/12/29 08:17:17;;;;;;;55.30;26.02;;;;;;;0.75;nan;101207.03;5036500;28;20029;-70
2023/12/29 08:19:43;;;;;;;60.03;27.05;;;;;;;0.88;nan;101211.88;5037651;28;20098;-69
2023/12/29 08:22:08;;;;;;;65.80;30.38;;;;;;;0.92;nan;101202.88;5042263;28;20061;-68
2023/12/29 08:24:34;;;;;;;64.38;30.65;;;;;;;0.96;nan;101196.44;5041170;28;20021;-68
2023/12/29 08:26:59;;;;;;;64.78;32.65;;;;;;;1.06;nan;101201.59;5037794;28;20032;-68
2023/12/29 08:29:25;;;;;;;69.93;33.20;;;;;;;1.21;nan;101207.13;5040147;28;20087;-69
2023/12/29 08:31:51;;;;;;;72.03;35.40;;;;;;;;;;5039343;28;20025;-69
2023/12/29 08:34:16;;;;;;;77.57;37.22;;;;;;;;;;5035800;28;20032;-68
2023/12/29 08:36:41;;;;;;;82.82;40.70;;;;;;;;;;5055547;28;20088;-68
2023/12/29 08:39:07;;;;;;;90.07;42.47;;;;;;;;;;5053407;28;20020;-68
2023/12/29 08:41:32;;;;;;;86.20;41.53;;;;;;;1.78;nan;101219.94;5039612;28;20094;-68
2023/12/29 08:43:58;;;;;;;82.70;41.00;;;;;;;2.46;nan;101310.38;5048280;28;20029;-70
2023/12/29 08:46:24;;;;;;;88.55;42.13;;;;;;;1.98;nan;101215.41;5037894;28;20017;-70
2023/12/29 08:48:49;;;;;;;80.10;37.53;;;;;;;2.15;nan;101214.59;5037165;28;21304;-69
2023/12/29 08:51:15;;;;;;;64.63;33.15;;;;;;;2.27;nan;101225.56;5021475;28;20082;-69
2023/12/29 08:53:40;;;;;;;67.55;32.10;;;;;;;2.26;nan;101211.75;5025204;28;20358;-69
2023/12/29 08:56:06;;;;;;;59.17;29.45;;;;;;;2.48;nan;101223.47;5019513;28;20499;-69
2023/12/29 08:58:32;;;;;;;68.05;30.42;;;;;;;2.53;nan;101210.00;5017824;28;20430;-69
2023/12/29 09:00:57;;;;;;;62.47;30.15;;;;;;;2.59;nan;101203.41;5016200;28;20029;-69
2023/12/29 09:03:22;;;;;;;57.08;28.63;;;;;;;;;;5020132;28;20033;-69
2023/12/29 09:05:48;;;;;;;49.33;27.07;;;;;;;2.87;nan;101212.66;5018013;28;20025;-69
2023/12/29 09:08:13;;;;;;;55.78;27.02;;;;;;;3.00;nan;101207.03;5019669;28;20264;-69
2023/12/29 09:10:38;;;;;;;57.75;28.67;;;;;;;3.26;nan;101227.81;5016174;28;20025;-69
2023/12/29 09:13:04;;;;;;;53.70;27.52;;;;;;;3.31;nan;101214.34;5021454;28;20025;-69
2023/12/29 09:15:30;;;;;;;53.58;27.38;;;;;;;3.55;nan;101232.66;5018719;28;20115;-69
2023/12/29 09:17:55;;;;;;;51.15;26.75;;;;;;;3.99;nan;101265.47;5015909;28;20037;-70
2023/12/29 09:20:21;;;;;;;53.67;27.85;;;;;;;3.74;nan;101194.28;5021912;28;20032;-69
2023/12/29 09:22:46;;;;;;;51.75;27.17;;;;;;;3.96;nan;101198.84;5015029;28;20025;-70
2023/12/29 09:25:12;;;;;;;53.92;27.20;;;;;;;4.12;nan;101199.84;5020359;28;20026;-69
2023/12/29 09:27:37;;;;;;;51.83;26.40;;;;;;;4.31;nan;101209.13;5016601;28;20030;-69
2023/12/29 09:30:04;;;;;;;51.58;26.17;;;;;;;4.34;nan;101193.16;5019330;28;20167;-70
2023/12/29 09:32:30;;;;;;;58.47;28.85;;;;;;;4.57;nan;101214.16;5017227;28;20037;-69
2023/12/29 09:34:55;;;;;;;57.13;29.52;;;;;;;4.54;nan;101188.41;5019068;28;20494;-70
2023/12/29 09:37:22;;;;;;;53.38;28.55;;;;;;;4.71;nan;101208.25;5019172;28;20018;-70
2023/12/29 09:39:47;;;;;;;54.70;28.75;;;;;;;4.92;nan;101214.75;5026966;28;20033;-70
2023/12/29 09:42:21;;;;;;;55.90;29.40;;;;;;;5.05;nan;101204.59;5019214;28;20108;-69
2023/12/29 09:44:50;;;;;;;54.83;28.98;;;;;;;5.01;nan;101187.66;5018706;28;20084;-69
2023/12/29 09:47:20;;;;;;;55.90;29.43;;;;;;;5.25;nan;101205.81;5019328;28;20506;-69
2023/12/29 09:49:46;;;;;;;54.58;29.48;;;;;;;5.18;nan;101178.75;5013618;28;20318;-68
2023/12/29 09:52:13;;;;;;;52.25;29.98;;;;;;;5.38;nan;101207.06;5022201;28;20080;-69
2023/12/29 09:54:39;;;;;;;55.03;29.33;;;;;;;5.36;nan;101193.38;5037030;28;20029;-70
2023/12/29 09:57:05;;;;;;;58.15;30.73;;;;;;;5.44;nan;101193.34;5034822;28;20021;-68
2023/12/29 09:59:35;;;;;;;56.60;29.67;;;;;;;5.41;nan;101167.53;5038278;28;20025;-69
2023/12/29 10:02:03;;;;;;;54.33;29.10;;;;;;;5.35;nan;101149.97;5038369;28;20538;-70
2023/12/29 10:04:29;;;;;;;52.20;29.17;;;;;;;5.60;nan;101168.91;5035270;28;20160;-67
2023/12/29 10:06:56;;;;;;;54.53;28.90;;;;;;;5.67;nan;101172.44;5017796;28;20516;-70
2023/12/29 10:09:23;;;;;;;54.75;28.83;;;;;;;5.62;nan;101159.09;5018509;28;20032;-69
2023/12/29 10:11:51;;;;;;;45.47;27.05;;;;;;;5.72;nan;101163.13;5036450;28;20029;-69
2023/12/29 10:14:36;;;;;;;57.85;29.13;;;;;;;5.81;nan;101156.03;5036079;28;20029;-69
2023/12/29 10:17:12;;;;;;;55.95;29.42;;;;;;;5.80;nan;101145.75;5038356;28;20025;-69
2023/12/29 10:19:46;;;;;;;53.00;28.58;;;;;;;5.85;nan;101128.56;5038801;28;20074;-70
2023/12/29 10:22:27;;;;;;;54.47;28.55;;;;;;;6.08;nan;101151.25;5037932;28;20018;-69
2023/12/29 10:24:54;;;;;;;52.05;28.23;;;;;;;6.07;nan;101131.34;5036701;28;20049;-70
2023/12/29 10:27:20;;;;;;;51.20;28.10;;;;;;;6.21;nan;101137.59;5034975;28;20471;-68
2023/12/29 10:29:45;;;;;;;53.35;27.65;;;;;;;6.31;nan;101135.53;5035389;28;20100;-68
2023/12/29 10:32:10;;;;;;;46.67;27.00;;;;;;;6.47;nan;101150.28;5035067;28;20087;-67
2023/12/29 10:34:36;;;;;;;48.85;26.88;;;;;;;6.51;nan;101128.81;5034634;28;20643;-68
2023/12/29 10:37:04;;;;;;;51.95;27.50;;;;;;;6.63;nan;101118.66;5034218;28;20025;-69
2023/12/29 10:39:29;;;;;;;49.50;28.25;;;;;;;6.82;nan;101128.63;5025841;28;20660;-67
2023/12/29 10:42:06;;;;;;;48.75;27.60;;;;;;;6.92;nan;101128.34;5038637;28;20028;-69
2023/12/29 10:44:36;;;;;;;48.58;27.58;;;;;;;7.05;nan;101125.06;5032704;28;20096;-68
2023/12/29 10:47:09;;;;;;;51.45;28.48;;;;;;;7.17;nan;101117.53;5027060;28;20033;-68
2023/12/29 10:49:35;;;;;;;53.85;29.15;;;;;;;7.25;nan;101114.78;5036726;28;20057;-68
2023/12/29 10:52:11;;;;;;;50.45;28.70;;;;;;;7.48;nan;101121.69;5021891;28;20073;-67
2023/12/29 10:54:37;;;;;;;52.35;28.77;;;;;;;7.43;nan;101096.03;5015079;28;20105;-68
2023/12/29 10:57:03;;;;;;;48.10;28.20;;;;;;;7.72;nan;101116.06;5014357;28;20109;-68
2023/12/29 10:59:29;;;;;;;54.83;30.20;;;;;;;7.80;nan;101115.94;5013522;28;20030;-68
2023/12/29 11:01:55;;;;;;;58.80;31.67;;;;;;;7.77;nan;101092.72;5013323;28;20056;-69
2023/12/29 11:04:24;;;;;;;52.42;29.83;;;;;;;7.85;nan;101097.00;5018635;28;20490;-72
2023/12/29 11:06:51;;;;;;;55.37;30.13;;;;;;;7.90;nan;101099.88;5018356;28;20029;-71
2023/12/29 11:09:29;;;;;;;53.30;30.55;;;;;;;7.92;nan;101078.72;5030094;28;20033;-71
2023/12/29 11:11:59;;;;;;;55.33;30.90;;;;;;;7.94;nan;101082.75;5044558;28;20067;-70
2023/12/29 11:14:25;;;;;;;56.75;31.25;;;;;;;8.10;nan;101098.22;5043358;28;20025;-69
2023/12/29 11:16:52;;;;;;;52.10;30.38;;;;;;;8.14;nan;101103.91;5042731;28;20034;-69
2023/12/29 11:19:18;;;;;;;57.30;31.70;;;;;;;8.14;nan;101084.72;5041391;28;20041;-70
2023/12/29 11:21:44;;;;;;;59.40;31.73;;;;;;;8.26;nan;101085.78;5021714;28;20531;-72
2023/12/29 11:24:10;;;;;;;55.50;31.17;;;;;;;8.23;nan;101080.94;5021315;28;20029;-70
2023/12/29 11:26:37;;;;;;;54.40;32.00;;;;;;;8.05;nan;101040.28;5019062;28;20082;-69
2023/12/29 11:29:04;;;;;;;58.92;32.30;;;;;;;8.29;nan;101075.75;5020682;28;20053;-68
2023/12/29 11:31:31;;;;;;;52.70;30.73;;;;;;;8.38;nan;101088.69;5017948;28;20028;-69
2023/12/29 11:34:07;;;;;;;57.20;31.50;;;;;;;8.41;nan;101086.53;5020396;28;20025;-68
2023/12/29 11:36:38;;;;;;;54.25;29.95;;;;;;;8.37;nan;101072.16;5019345;28;20074;-70
2023/12/29 11:39:29;;;;;;;51.67;29.67;;;;;;;8.45;nan;101073.81;5020545;28;20073;-70
2023/12/29 11:42:17;;;;;;;54.38;30.67;;;;;;;8.45;nan;101073.81;5017571;28;20068;-69
2023/12/29 11:44:45;;;;;;;52.70;29.42;;;;;;;8.43;nan;101076.66;5019200;28;20026;-69
2023/12/29 11:47:38;;;;;;;49.60;29.40;;;;;;;8.48;nan;101074.25;5020352;28;20018;-68
2023/12/29 11:50:05;;;;;;;54.47;29.75;;;;;;;8.42;nan;101063.72;5026193;28;20029;-68
2023/12/29 11:52:34;;;;;;;54.53;30.13;;;;;;;8.51;nan;101078.31;5027572;28;20041;-70
2023/12/29 11:55:09;;;;;;;;;;;;;;;8.52;nan;101061.53;5038894;28;20116;-67
2023/12/29 11:57:36;;;;;;;52.50;27.48;;;;;;;8.43;nan;101047.00;5053530;28;19921;-69
2023/12/29 12:00:05;;;;;;;48.53;28.00;;;;;;;8.50;nan;101059.13;5028383;28;20415;-69
2023/12/29 12:02:31;;;;;;;51.72;29.02;;;;;;;8.51;nan;101050.25;5029557;28;20024;-71
2023/12/29 12:04:56;;;;;;;50.13;27.98;;;;;;;8.57;nan;101059.16;5042565;28;20044;-70